createdAt,value
2022-11-16T00:01:13.802Z,6.33
2022-11-16T00:03:41.330Z,8.57
2022-11-16T00:06:09.175Z,5.87
2022-11-16T00:08:38.092Z,7.03
2022-11-16T00:11:13.345Z,5.67
2022-11-16T00:13:41.413Z,7.50
2022-11-16T00:16:09.496Z,5.60
2022-11-16T00:18:36.804Z,6.63
2022-11-16T00:21:05.496Z,6.60
2022-11-16T00:23:32.984Z,4.67
2022-11-16T00:26:04.848Z,5.17
2022-11-16T00:28:32.332Z,4.43
2022-11-16T00:31:01.153Z,3.43
2022-11-16T00:33:28.633Z,3.23
2022-11-16T00:35:55.881Z,3.17
2022-11-16T00:38:23.327Z,3.83
2022-11-16T00:40:50.842Z,3.20
2022-11-16T00:43:18.235Z,4.03
2022-11-16T00:45:45.705Z,16.13
2022-11-16T00:48:13.412Z,9.40
2022-11-16T00:50:40.745Z,7.30
2022-11-16T00:53:09.149Z,4.57
2022-11-16T00:55:36.937Z,4.33
2022-11-16T00:58:04.310Z,18.60
2022-11-16T01:00:31.973Z,7.83
2022-11-16T01:02:59.228Z,6.20
2022-11-16T01:05:26.477Z,6.43
2022-11-16T01:07:54.251Z,6.13
2022-11-16T01:10:22.938Z,5.27
2022-11-16T01:12:50.689Z,6.97
2022-11-16T01:15:18.891Z,6.30
2022-11-16T01:17:46.366Z,8.00
2022-11-16T01:20:15.609Z,6.40
2022-11-16T01:22:43.285Z,6.13
2022-11-16T01:25:11.316Z,5.43
2022-11-16T01:27:38.921Z,5.67
2022-11-16T01:30:07.539Z,4.53
2022-11-16T01:32:35.160Z,5.47
2022-11-16T01:35:02.957Z,4.53
2022-11-16T01:37:30.602Z,5.03
2022-11-16T01:39:57.878Z,4.23
2022-11-16T01:42:26.871Z,5.07
2022-11-16T01:44:59.265Z,6.83
2022-11-16T01:47:26.648Z,4.80
2022-11-16T01:49:55.681Z,5.40
2022-11-16T01:52:25.472Z,4.53
2022-11-16T01:54:54.255Z,5.90
2022-11-16T01:57:26.789Z,12.73
2022-11-16T01:59:56.522Z,5.03
2022-11-16T02:02:23.803Z,4.23
2022-11-16T02:04:53.222Z,3.53
2022-11-16T02:07:20.515Z,4.50
2022-11-16T02:10:11.183Z,4.63
2022-11-16T02:12:44.665Z,7.30
2022-11-16T02:15:27.294Z,5.37
2022-11-16T02:18:03.688Z,5.10
2022-11-16T02:20:30.994Z,3.47
2022-11-16T02:23:03.003Z,2.53
2022-11-16T02:25:30.336Z,2.40
2022-11-16T02:28:09.671Z,1.90
2022-11-16T02:30:37.627Z,2.57
2022-11-16T02:33:17.451Z,1.80
2022-11-16T02:35:46.988Z,1.93
2022-11-16T02:38:17.317Z,2.23
2022-11-16T02:40:47.380Z,2.53
2022-11-16T02:43:17.732Z,1.90
2022-11-16T02:45:46.731Z,1.70
2022-11-16T02:48:16.032Z,2.40
2022-11-16T02:50:44.038Z,1.90
2022-11-16T02:53:11.332Z,2.00
2022-11-16T02:55:39.077Z,3.10
2022-11-16T02:58:07.282Z,2.20
2022-11-16T03:00:53.696Z,2.00
2022-11-16T03:03:39.859Z,2.00
2022-11-16T03:06:29.669Z,2.47
2022-11-16T03:09:05.442Z,2.23
2022-11-16T03:11:53.678Z,1.73
2022-11-16T03:14:23.611Z,1.93
2022-11-16T03:16:53.513Z,1.87
2022-11-16T03:19:23.415Z,1.50
2022-11-16T03:21:52.949Z,2.03
2022-11-16T03:24:21.207Z,2.27
2022-11-16T03:27:02.176Z,1.80
2022-11-16T03:29:29.545Z,1.73
2022-11-16T03:31:59.822Z,1.90
2022-11-16T03:34:30.299Z,1.57
2022-11-16T03:36:58.808Z,1.80
2022-11-16T03:39:29.505Z,2.70
2022-11-16T03:41:58.110Z,1.73
2022-11-16T03:44:25.848Z,2.20
2022-11-16T03:46:53.255Z,1.90
2022-11-16T03:49:23.974Z,2.10
2022-11-16T03:51:52.489Z,1.80
2022-11-16T03:54:19.945Z,2.70
2022-11-16T03:56:47.323Z,2.03
2022-11-16T03:59:14.571Z,3.27
2022-11-16T04:01:44.669Z,1.90
2022-11-16T04:04:32.340Z,2.20
2022-11-16T04:07:18.843Z,2.70
2022-11-16T04:10:05.078Z,3.10
2022-11-16T04:12:51.456Z,3.40
2022-11-16T04:15:37.636Z,3.87
2022-11-16T04:18:23.721Z,4.47
2022-11-16T04:21:09.947Z,5.83
2022-11-16T04:23:56.087Z,5.73
2022-11-16T04:26:43.299Z,5.20
2022-11-16T04:29:10.600Z,5.87
2022-11-16T04:31:56.534Z,5.40
2022-11-16T04:34:42.415Z,6.27
2022-11-16T04:37:31.240Z,5.63
2022-11-16T04:39:58.467Z,6.77
2022-11-16T04:42:25.890Z,6.27
2022-11-16T04:45:11.768Z,5.80
2022-11-16T04:47:39.100Z,7.13
2022-11-16T04:50:07.066Z,7.03
2022-11-16T04:52:37.537Z,6.60
2022-11-16T04:55:04.935Z,6.47
2022-11-16T04:57:32.213Z,6.53
2022-11-16T04:59:59.521Z,7.43
2022-11-16T05:02:26.862Z,9.03
2022-11-16T05:04:54.355Z,6.40
2022-11-16T05:07:22.000Z,7.27
2022-11-16T05:09:49.904Z,7.17
2022-11-16T05:12:24.755Z,6.87
2022-11-16T05:14:52.086Z,6.80
2022-11-16T05:17:19.888Z,6.97
2022-11-16T05:20:05.909Z,8.23
2022-11-16T05:22:33.569Z,8.10
2022-11-16T05:25:00.889Z,8.90
2022-11-16T05:27:29.906Z,10.50
2022-11-16T05:29:57.241Z,10.93
2022-11-16T05:32:25.641Z,13.93
2022-11-16T05:34:53.078Z,10.27
2022-11-16T05:37:21.230Z,17.07
2022-11-16T05:39:49.158Z,7.70
2022-11-16T05:42:16.684Z,7.20
2022-11-16T05:44:43.990Z,7.00
2022-11-16T05:47:11.269Z,7.03
2022-11-16T05:49:38.858Z,8.77
2022-11-16T05:52:06.107Z,7.63
2022-11-16T05:54:33.342Z,6.70
2022-11-16T05:57:00.622Z,6.77
2022-11-16T05:59:29.530Z,6.83
2022-11-16T06:01:57.863Z,7.50
2022-11-16T06:04:25.243Z,6.67
2022-11-16T06:06:52.684Z,9.03
2022-11-16T06:09:20.424Z,6.67
2022-11-16T06:11:47.663Z,6.90
2022-11-16T06:14:14.913Z,6.63
2022-11-16T06:16:42.165Z,7.57
2022-11-16T06:19:09.649Z,7.27
2022-11-16T06:21:36.909Z,6.07
2022-11-16T06:24:08.960Z,6.03
2022-11-16T06:26:37.147Z,6.20
2022-11-16T06:29:04.449Z,5.70
2022-11-16T06:31:31.876Z,6.10
2022-11-16T06:33:59.134Z,5.90
2022-11-16T06:36:26.955Z,6.80
2022-11-16T06:38:54.292Z,6.30
2022-11-16T06:41:21.855Z,6.47
2022-11-16T06:43:49.226Z,6.70
2022-11-16T06:46:16.656Z,7.80
2022-11-16T06:48:43.899Z,6.50
2022-11-16T06:51:11.370Z,6.73
2022-11-16T06:53:38.621Z,6.43
2022-11-16T06:56:06.638Z,5.97
2022-11-16T06:58:34.692Z,7.27
2022-11-16T07:01:09.479Z,6.03
2022-11-16T07:03:36.812Z,6.70
2022-11-16T07:06:08.380Z,6.17
2022-11-16T07:08:36.094Z,7.40
2022-11-16T07:11:05.116Z,6.57
2022-11-16T07:13:33.501Z,6.47
2022-11-16T07:16:08.570Z,6.53
2022-11-16T07:18:37.305Z,8.13
2022-11-16T07:21:12.574Z,7.63
2022-11-16T07:23:40.235Z,6.50
2022-11-16T07:26:08.228Z,6.73
2022-11-16T07:28:35.977Z,6.03
2022-11-16T07:31:08.558Z,6.07
2022-11-16T07:33:36.203Z,6.33
2022-11-16T07:36:07.721Z,6.50
2022-11-16T07:38:35.487Z,6.83
2022-11-16T07:41:03.685Z,6.03
2022-11-16T07:43:40.460Z,6.60
2022-11-16T07:48:59.379Z,5.77
2022-11-16T07:51:26.749Z,5.83
2022-11-16T07:53:58.269Z,5.27
2022-11-16T07:56:25.923Z,5.70
2022-11-16T07:58:53.366Z,5.33
2022-11-16T08:01:20.786Z,5.07
2022-11-16T08:03:48.340Z,5.53
2022-11-16T08:06:21.230Z,5.10
2022-11-16T08:08:56.704Z,4.57
2022-11-16T08:11:25.485Z,6.43
2022-11-16T08:13:52.878Z,5.40
2022-11-16T08:16:21.787Z,4.17
2022-11-16T08:18:49.169Z,4.40
2022-11-16T08:21:17.184Z,5.07
2022-11-16T08:23:47.946Z,3.53
2022-11-16T08:26:20.194Z,3.60
2022-11-16T08:28:51.120Z,7.63
2022-11-16T08:31:20.226Z,4.97
2022-11-16T08:33:48.160Z,2.90
2022-11-16T08:36:18.384Z,2.60
2022-11-16T08:38:46.329Z,2.23
2022-11-16T08:41:14.241Z,3.47
2022-11-16T08:43:41.767Z,2.30
2022-11-16T08:46:10.081Z,2.30
2022-11-16T08:48:38.102Z,1.80
2022-11-16T08:51:17.533Z,3.93
2022-11-16T08:53:48.557Z,1.73
2022-11-16T08:56:16.798Z,1.77
2022-11-16T08:58:46.422Z,2.03
2022-11-16T09:01:14.958Z,1.47
2022-11-16T09:03:42.836Z,1.50
2022-11-16T09:06:10.820Z,2.67
2022-11-16T09:08:39.384Z,3.10
2022-11-16T09:11:07.834Z,2.90
2022-11-16T09:13:35.465Z,4.27
2022-11-16T09:16:03.057Z,3.00
2022-11-16T09:18:30.956Z,2.30
2022-11-16T09:20:58.800Z,2.97
2022-11-16T09:23:26.200Z,1.60
2022-11-16T09:25:54.807Z,2.50
2022-11-16T09:28:22.950Z,5.80
2022-11-16T09:30:51.645Z,2.83
2022-11-16T09:33:19.474Z,8.83
2022-11-16T09:35:47.142Z,1.50
2022-11-16T09:38:22.054Z,2.47
2022-11-16T09:40:57.918Z,2.07
2022-11-16T09:43:34.599Z,3.37
2022-11-16T09:46:06.736Z,2.27
2022-11-16T09:48:36.625Z,1.90
2022-11-16T09:51:08.348Z,1.90
2022-11-16T09:53:41.813Z,1.37
2022-11-16T09:56:09.192Z,1.20
2022-11-16T09:58:55.584Z,4.07
2022-11-16T10:01:26.022Z,3.70
2022-11-16T10:03:56.487Z,1.10
2022-11-16T10:06:24.804Z,1.63
2022-11-16T10:08:52.774Z,1.57
2022-11-16T10:11:23.120Z,2.97
2022-11-16T10:13:50.394Z,2.37
2022-11-16T10:16:31.329Z,2.07
2022-11-16T10:19:04.011Z,2.27
2022-11-16T10:21:37.349Z,1.17
2022-11-16T10:24:23.479Z,4.50
2022-11-16T10:27:00.082Z,3.20
2022-11-16T10:29:33.756Z,2.63
2022-11-16T10:32:13.392Z,1.97
2022-11-16T10:34:54.501Z,2.07
2022-11-16T10:37:22.378Z,2.93
2022-11-16T10:39:53.159Z,2.20
2022-11-16T10:42:33.275Z,1.17
2022-11-16T10:45:27.038Z,1.30
2022-11-16T10:48:25.277Z,2.00
2022-11-16T10:50:53.320Z,1.57
2022-11-16T10:53:28.365Z,1.63
2022-11-16T10:56:14.228Z,3.67
2022-11-16T10:58:52.627Z,0.80
2022-11-16T11:01:50.031Z,2.27
2022-11-16T11:04:22.377Z,2.67
2022-11-16T11:06:53.935Z,1.77
2022-11-16T11:09:24.110Z,3.30
2022-11-16T11:12:19.323Z,4.73
2022-11-16T11:15:06.426Z,2.10
2022-11-16T11:17:35.559Z,2.67
2022-11-16T11:20:04.308Z,3.20
2022-11-16T11:22:33.201Z,4.47
2022-11-16T11:25:03.347Z,3.43
2022-11-16T11:27:34.335Z,6.43
2022-11-16T11:30:02.252Z,7.83
2022-11-16T11:32:32.946Z,5.03
2022-11-16T11:35:01.339Z,4.87
2022-11-16T11:37:31.343Z,1.63
2022-11-16T11:40:08.003Z,4.87
2022-11-16T11:42:35.284Z,4.63
2022-11-16T11:45:06.441Z,3.20
2022-11-16T11:50:33.671Z,3.17
2022-11-16T11:53:19.891Z,2.67
2022-11-16T11:55:47.188Z,3.53
2022-11-16T11:58:19.404Z,3.17
2022-11-16T12:00:47.104Z,3.50
2022-11-16T12:03:32.682Z,3.33
2022-11-16T12:06:15.659Z,2.53
2022-11-16T12:08:52.086Z,5.23
2022-11-16T12:11:28.637Z,4.13
2022-11-16T12:13:55.988Z,3.10
2022-11-16T12:16:27.522Z,3.23
2022-11-16T12:19:01.118Z,3.30
2022-11-16T12:21:47.246Z,1.70
2022-11-16T12:24:17.645Z,2.37
2022-11-16T12:26:56.227Z,2.30
2022-11-16T12:29:37.260Z,3.53
2022-11-16T12:32:07.700Z,2.45
2022-11-16T12:34:53.773Z,2.00
2022-11-16T12:37:24.126Z,2.88
2022-11-16T12:40:01.031Z,3.20
2022-11-16T12:42:33.380Z,5.50
2022-11-16T12:45:29.031Z,2.00
2022-11-16T12:47:57.878Z,3.77
2022-11-16T12:50:48.491Z,1.70
2022-11-16T12:53:22.485Z,2.50
2022-11-16T12:55:56.999Z,2.30
2022-11-16T12:58:33.509Z,3.30
2022-11-16T13:01:04.392Z,7.50
2022-11-16T13:03:51.804Z,1.50
2022-11-16T13:06:21.857Z,2.13
2022-11-16T13:08:49.104Z,2.93
2022-11-16T13:11:19.612Z,2.57
2022-11-16T13:13:53.019Z,2.30
2022-11-16T13:16:21.881Z,2.13
2022-11-16T13:18:49.638Z,3.77
2022-11-16T13:21:22.954Z,1.90
2022-11-16T13:24:07.881Z,22.23
2022-11-16T13:26:54.056Z,2.70
2022-11-16T13:29:21.383Z,1.97
2022-11-16T13:32:03.986Z,2.63
2022-11-16T13:34:35.369Z,1.60
2022-11-16T13:37:02.661Z,3.27
2022-11-16T13:39:48.892Z,2.43
2022-11-16T13:42:16.959Z,1.85
2022-11-16T13:44:48.748Z,2.27
2022-11-16T13:47:26.359Z,2.47
2022-11-16T13:50:01.783Z,4.40
2022-11-16T13:53:23.484Z,2.55
2022-11-16T13:55:31.715Z,4.80
2022-11-16T13:58:00.107Z,1.43
2022-11-16T14:00:34.188Z,2.47
2022-11-16T14:03:17.072Z,5.10
2022-11-16T14:05:45.646Z,1.98
2022-11-16T14:08:26.184Z,2.53
2022-11-16T14:10:53.440Z,1.95
2022-11-16T14:13:36.449Z,1.65
2022-11-16T14:16:16.646Z,2.60
2022-11-16T14:18:44.757Z,1.15
2022-11-16T14:21:32.553Z,1.63
2022-11-16T14:24:05.949Z,1.13
2022-11-16T14:26:51.531Z,1.90
2022-11-16T14:29:34.730Z,2.40
2022-11-16T14:32:02.832Z,2.73
2022-11-16T14:34:40.240Z,3.43
2022-11-16T14:37:12.497Z,2.53
2022-11-16T14:39:43.611Z,2.47
2022-11-16T14:42:29.878Z,4.93
2022-11-16T14:45:03.377Z,2.53
2022-11-16T14:47:33.242Z,3.30
2022-11-16T14:50:00.456Z,2.13
2022-11-16T14:52:54.210Z,2.63
2022-11-16T14:55:22.964Z,4.03
2022-11-16T14:57:50.340Z,1.90
2022-11-16T15:00:18.435Z,2.08
2022-11-16T15:02:51.523Z,2.27
2022-11-16T15:05:23.126Z,2.17
2022-11-16T15:07:57.310Z,3.63
2022-11-16T15:10:26.556Z,3.23
2022-11-16T15:12:55.333Z,2.75
2022-11-16T15:15:27.536Z,4.10
2022-11-16T15:18:00.912Z,1.58
2022-11-16T15:20:30.357Z,2.57
2022-11-16T15:23:01.557Z,3.50
2022-11-16T15:25:28.868Z,4.17
2022-11-16T15:27:57.101Z,4.27
2022-11-16T15:30:34.911Z,4.93
2022-11-16T15:33:10.028Z,4.23
2022-11-16T15:35:38.594Z,2.87
2022-11-16T15:38:05.885Z,4.70
2022-11-16T15:40:34.159Z,6.90
2022-11-16T15:43:03.440Z,5.93
2022-11-16T15:45:30.969Z,5.70
2022-11-16T15:48:00.752Z,10.10
2022-11-16T15:50:28.717Z,8.83
2022-11-16T15:52:56.542Z,8.43
2022-11-16T15:55:31.783Z,9.50
2022-11-16T15:57:59.396Z,4.20
2022-11-16T16:00:27.806Z,3.80
2022-11-16T16:02:59.831Z,6.10
2022-11-16T16:05:36.953Z,10.13
2022-11-16T16:08:06.254Z,6.10
2022-11-16T16:10:34.223Z,9.00
2022-11-16T16:13:02.350Z,8.47
2022-11-16T16:15:34.300Z,9.17
2022-11-16T16:18:02.552Z,9.57
2022-11-16T16:20:31.047Z,12.93
2022-11-16T16:23:08.840Z,10.50
2022-11-16T16:25:37.355Z,13.33
2022-11-16T16:28:04.933Z,15.23
2022-11-16T16:30:35.980Z,21.40
2022-11-16T16:33:03.561Z,12.60
2022-11-16T16:35:30.846Z,13.13
2022-11-16T16:37:59.655Z,13.33
2022-11-16T16:40:26.960Z,15.00
2022-11-16T16:42:56.133Z,14.93
2022-11-16T16:45:41.481Z,11.90
2022-11-16T16:48:10.053Z,14.47
2022-11-16T16:50:37.900Z,14.57
2022-11-16T16:53:05.589Z,13.40
2022-11-16T16:55:36.953Z,15.47
2022-11-16T16:58:05.168Z,15.43
2022-11-16T17:00:32.551Z,9.47
2022-11-16T17:03:00.003Z,13.50
2022-11-16T17:05:27.314Z,15.93
2022-11-16T17:07:57.794Z,20.47
2022-11-16T17:10:25.142Z,19.17
2022-11-16T17:12:55.880Z,20.27
2022-11-16T17:15:23.519Z,32.90
2022-11-16T17:17:50.928Z,32.33
2022-11-16T17:20:19.280Z,31.53
2022-11-16T17:22:47.883Z,36.03
2022-11-16T17:25:15.350Z,38.57
2022-11-16T17:27:42.605Z,17.63
2022-11-16T17:30:10.251Z,10.40
2022-11-16T17:32:37.594Z,13.40
2022-11-16T17:35:05.102Z,13.77
2022-11-16T17:37:32.385Z,9.80
2022-11-16T17:39:59.675Z,19.80
2022-11-16T17:42:26.870Z,30.57
2022-11-16T17:44:55.197Z,22.87
2022-11-16T17:47:22.473Z,21.33
2022-11-16T17:49:49.789Z,22.80
2022-11-16T17:52:17.215Z,18.37
2022-11-16T17:54:44.608Z,23.87
2022-11-16T17:57:11.948Z,33.87
2022-11-16T17:59:39.173Z,27.23
2022-11-16T18:02:07.702Z,18.63
2022-11-16T18:04:34.916Z,21.00
2022-11-16T18:07:02.820Z,17.77
2022-11-16T18:09:30.247Z,16.47
2022-11-16T18:11:58.499Z,13.47
2022-11-16T18:14:26.627Z,15.10
2022-11-16T18:16:53.856Z,9.13
2022-11-16T18:19:21.209Z,8.87
2022-11-16T18:21:49.093Z,12.80
2022-11-16T18:24:16.496Z,9.10
2022-11-16T18:26:43.964Z,8.10
2022-11-16T18:29:16.141Z,10.83
2022-11-16T18:31:43.539Z,7.57
2022-11-16T18:34:13.042Z,10.53
2022-11-16T18:36:40.463Z,5.30
2022-11-16T18:39:08.287Z,7.90
2022-11-16T18:41:35.626Z,6.97
2022-11-16T18:44:03.837Z,6.10
2022-11-16T18:46:32.434Z,7.33
2022-11-16T18:49:01.741Z,11.03
2022-11-16T18:51:29.741Z,14.80
2022-11-16T18:53:58.260Z,17.43
2022-11-16T18:56:26.284Z,11.57
2022-11-16T18:58:53.835Z,14.27
2022-11-16T19:01:22.956Z,9.83
2022-11-16T19:03:50.943Z,11.70
2022-11-16T19:06:18.664Z,18.67
2022-11-16T19:08:52.148Z,15.70
2022-11-16T19:11:22.555Z,17.13
2022-11-16T19:13:53.247Z,11.40
2022-11-16T19:16:23.997Z,3.57
2022-11-16T19:18:51.711Z,1.70
2022-11-16T19:21:19.125Z,2.13
2022-11-16T19:23:47.776Z,3.77
2022-11-16T19:26:16.590Z,5.43
2022-11-16T19:28:44.855Z,4.23
2022-11-16T19:31:17.120Z,6.33
2022-11-16T19:33:45.502Z,6.63
2022-11-16T19:36:17.225Z,10.43
2022-11-16T19:38:45.256Z,8.83
2022-11-16T19:41:13.542Z,7.30
2022-11-16T19:43:40.903Z,4.97
2022-11-16T19:46:10.794Z,6.57
2022-11-16T19:48:38.674Z,4.50
2022-11-16T19:51:14.339Z,5.60
2022-11-16T19:53:41.830Z,4.00
2022-11-16T19:56:12.757Z,17.10
2022-11-16T19:58:40.045Z,5.70
2022-11-16T20:01:07.402Z,6.87
2022-11-16T20:03:35.467Z,3.87
2022-11-16T20:06:10.792Z,4.60
2022-11-16T20:08:39.182Z,4.00
2022-11-16T20:11:20.634Z,4.93
2022-11-16T20:13:48.769Z,9.20
2022-11-16T20:16:17.021Z,8.30
2022-11-16T20:18:44.945Z,7.03
2022-11-16T20:21:29.156Z,15.97
2022-11-16T20:24:01.578Z,15.33
2022-11-16T20:26:33.531Z,17.27
2022-11-16T20:29:00.891Z,10.83
2022-11-16T20:31:29.354Z,11.70
2022-11-16T20:33:59.997Z,9.93
2022-11-16T20:36:28.434Z,12.53
2022-11-16T20:38:56.843Z,6.70
2022-11-16T20:41:25.264Z,5.73
2022-11-16T20:43:53.594Z,6.67
2022-11-16T20:46:22.131Z,4.50
2022-11-16T20:48:49.733Z,5.37
2022-11-16T20:51:18.638Z,7.00
2022-11-16T20:53:47.617Z,4.73
2022-11-16T20:56:15.905Z,10.67
2022-11-16T20:58:43.545Z,6.63
2022-11-16T21:01:14.091Z,6.83
2022-11-16T21:03:42.603Z,10.03
2022-11-16T21:06:10.348Z,7.57
2022-11-16T21:08:38.373Z,9.67
2022-11-16T21:11:16.205Z,8.70
2022-11-16T21:14:02.274Z,7.90
2022-11-16T21:16:29.628Z,6.23
2022-11-16T21:18:57.091Z,8.13
2022-11-16T21:21:25.655Z,6.03
2022-11-16T21:23:54.097Z,6.47
2022-11-16T21:26:24.600Z,8.17
2022-11-16T21:28:52.315Z,9.30
2022-11-16T21:31:25.808Z,5.93
2022-11-16T21:33:53.678Z,5.43
2022-11-16T21:36:22.842Z,9.47
2022-11-16T21:38:50.178Z,10.20
2022-11-16T21:41:18.517Z,12.63
2022-11-16T21:43:45.817Z,9.30
2022-11-16T21:46:13.000Z,7.77
2022-11-16T21:48:40.764Z,7.20
2022-11-16T21:51:09.275Z,5.83
2022-11-16T21:53:37.291Z,7.27
2022-11-16T21:56:05.629Z,7.13
2022-11-16T21:58:32.927Z,4.40
2022-11-16T22:01:01.558Z,5.50
2022-11-16T22:03:30.006Z,4.50
2022-11-16T22:06:18.655Z,6.43
2022-11-16T22:08:46.268Z,4.67
2022-11-16T22:11:14.905Z,9.70
2022-11-16T22:13:42.873Z,5.23
2022-11-16T22:16:17.276Z,3.77
2022-11-16T22:18:44.484Z,6.03
2022-11-16T22:21:12.355Z,6.03
2022-11-16T22:23:40.244Z,5.63
2022-11-16T22:26:09.179Z,3.83
2022-11-16T22:28:37.413Z,4.60
2022-11-16T22:31:12.282Z,4.03
2022-11-16T22:33:39.854Z,4.33
2022-11-16T22:36:10.420Z,4.27
2022-11-16T22:38:38.374Z,4.80
2022-11-16T22:41:05.942Z,5.20
2022-11-16T22:43:33.819Z,6.70
2022-11-16T22:46:02.636Z,5.97
2022-11-16T22:48:31.189Z,6.43
2022-11-16T22:51:12.959Z,7.37
2022-11-16T22:53:40.363Z,7.10
2022-11-16T22:56:08.396Z,6.37
2022-11-16T22:58:36.314Z,9.47
2022-11-16T23:01:04.196Z,4.53
2022-11-16T23:03:31.745Z,5.00
2022-11-16T23:05:59.783Z,6.27
2022-11-16T23:08:27.950Z,5.00
2022-11-16T23:11:20.967Z,4.90
2022-11-16T23:14:07.205Z,6.33
2022-11-16T23:16:34.953Z,6.43
2022-11-16T23:19:28.284Z,5.47
2022-11-16T23:22:14.653Z,5.77
2022-11-16T23:25:01.475Z,7.93
2022-11-16T23:27:31.141Z,10.90
2022-11-16T23:30:06.444Z,6.90
2022-11-16T23:32:36.714Z,8.57
2022-11-16T23:35:04.005Z,8.67
2022-11-16T23:37:31.349Z,8.67
2022-11-16T23:39:58.573Z,10.90
2022-11-16T23:42:44.763Z,7.17
2022-11-16T23:45:12.001Z,6.50
2022-11-16T23:47:39.710Z,8.67
2022-11-16T23:50:07.076Z,9.87
2022-11-16T23:52:34.335Z,11.33
2022-11-16T23:55:01.807Z,12.70
2022-11-16T23:57:29.145Z,15.23
2022-11-16T23:59:56.401Z,10.77
